sensor_id;sensor_type;location;lat;lon;timestamp;temperature;humidity
7512;DHT22;9999;48.780;9.146;2023-05-24T00:01:49;13.30;99.90
7512;DHT22;9999;48.780;9.146;2023-05-24T00:04:15;13.30;99.90
7512;DHT22;9999;48.780;9.146;2023-05-24T00:06:43;13.30;99.90
7512;DHT22;9999;48.780;9.146;2023-05-24T00:09:10;13.30;99.90
7512;DHT22;9999;48.780;9.146;2023-05-24T00:11:37;13.30;99.90
7512;DHT22;9999;48.780;9.146;2023-05-24T00:14:04;13.20;99.90
7512;DHT22;9999;48.780;9.146;2023-05-24T00:16:32;13.20;99.90
7512;DHT22;9999;48.780;9.146;2023-05-24T00:19:00;13.20;99.90
7512;DHT22;9999;48.780;9.146;2023-05-24T00:21:26;13.30;99.90
7512;DHT22;9999;48.780;9.146;2023-05-24T00:23:55;13.30;99.90
7512;DHT22;9999;48.780;9.146;2023-05-24T00:26:22;13.30;99.90
7512;DHT22;9999;48.780;9.146;2023-05-24T00:28:54;13.30;99.90
7512;DHT22;9999;48.780;9.146;2023-05-24T00:31:21;13.40;99.90
7512;DHT22;9999;48.780;9.146;2023-05-24T00:33:49;13.40;99.90
7512;DHT22;9999;48.780;9.146;2023-05-24T00:36:17;13.30;99.90
7512;DHT22;9999;48.780;9.146;2023-05-24T00:38:46;13.20;99.90
7512;DHT22;9999;48.780;9.146;2023-05-24T00:41:15;13.20;99.90
7512;DHT22;9999;48.780;9.146;2023-05-24T00:43:42;13.20;99.90
7512;DHT22;9999;48.780;9.146;2023-05-24T00:46:14;13.20;99.90
7512;DHT22;9999;48.780;9.146;2023-05-24T00:48:42;13.20;99.90
7512;DHT22;9999;48.780;9.146;2023-05-24T00:51:12;13.10;99.90
7512;DHT22;9999;48.780;9.146;2023-05-24T00:53:40;13.10;99.90
7512;DHT22;9999;48.780;9.146;2023-05-24T00:56:07;13.10;99.90
7512;DHT22;9999;48.780;9.146;2023-05-24T00:58:34;13.20;99.90
7512;DHT22;9999;48.780;9.146;2023-05-24T01:01:02;13.20;99.90
7512;DHT22;9999;48.780;9.146;2023-05-24T01:03:29;13.20;99.90
7512;DHT22;9999;48.780;9.146;2023-05-24T01:05:56;13.20;99.90
7512;DHT22;9999;48.780;9.146;2023-05-24T01:08:37;13.20;99.90
7512;DHT22;9999;48.780;9.146;2023-05-24T01:11:16;13.20;99.90
7512;DHT22;9999;48.780;9.146;2023-05-24T01:13:51;13.20;99.90
7512;DHT22;9999;48.780;9.146;2023-05-24T01:16:23;13.20;99.90
7512;DHT22;9999;48.780;9.146;2023-05-24T01:18:53;13.00;99.90
7512;DHT22;9999;48.780;9.146;2023-05-24T01:21:37;13.00;99.90
7512;DHT22;9999;48.780;9.146;2023-05-24T01:24:24;13.00;99.90
7512;DHT22;9999;48.780;9.146;2023-05-24T01:27:04;13.00;99.90
7512;DHT22;9999;48.780;9.146;2023-05-24T01:29:34;12.90;99.90
7512;DHT22;9999;48.780;9.146;2023-05-24T01:32:01;12.90;99.90
7512;DHT22;9999;48.780;9.146;2023-05-24T01:34:28;12.90;99.90
7512;DHT22;9999;48.780;9.146;2023-05-24T01:36:55;12.80;99.90
7512;DHT22;9999;48.780;9.146;2023-05-24T01:39:26;12.90;99.90
7512;DHT22;9999;48.780;9.146;2023-05-24T01:42:03;12.90;99.90
7512;DHT22;9999;48.780;9.146;2023-05-24T01:44:36;12.70;99.90
7512;DHT22;9999;48.780;9.146;2023-05-24T01:47:13;12.70;99.90
7512;DHT22;9999;48.780;9.146;2023-05-24T01:49:49;12.60;99.90
7512;DHT22;9999;48.780;9.146;2023-05-24T01:52:21;12.50;99.90
7512;DHT22;9999;48.780;9.146;2023-05-24T01:54:51;12.50;99.90
7512;DHT22;9999;48.780;9.146;2023-05-24T01:57:19;12.60;99.90
7512;DHT22;9999;48.780;9.146;2023-05-24T01:59:48;12.60;99.90
7512;DHT22;9999;48.780;9.146;2023-05-24T02:02:16;12.60;99.90
7512;DHT22;9999;48.780;9.146;2023-05-24T02:04:43;12.50;99.90
7512;DHT22;9999;48.780;9.146;2023-05-24T02:07:10;12.50;99.90
7512;DHT22;9999;48.780;9.146;2023-05-24T02:09:36;12.50;99.90
7512;DHT22;9999;48.780;9.146;2023-05-24T02:12:04;12.60;99.90
7512;DHT22;9999;48.780;9.146;2023-05-24T02:14:32;12.60;99.90
7512;DHT22;9999;48.780;9.146;2023-05-24T02:17:02;12.50;99.90
7512;DHT22;9999;48.780;9.146;2023-05-24T02:19:30;12.40;99.90
7512;DHT22;9999;48.780;9.146;2023-05-24T02:21:59;12.20;99.90
7512;DHT22;9999;48.780;9.146;2023-05-24T02:24:25;12.30;99.90
7512;DHT22;9999;48.780;9.146;2023-05-24T02:26:52;12.30;99.90
7512;DHT22;9999;48.780;9.146;2023-05-24T02:29:21;12.40;99.90
7512;DHT22;9999;48.780;9.146;2023-05-24T02:31:49;12.40;99.90
7512;DHT22;9999;48.780;9.146;2023-05-24T02:34:21;12.30;99.90
7512;DHT22;9999;48.780;9.146;2023-05-24T02:36:48;12.30;99.90
7512;DHT22;9999;48.780;9.146;2023-05-24T02:39:15;12.30;99.90
7512;DHT22;9999;48.780;9.146;2023-05-24T02:41:42;12.20;99.90
7512;DHT22;9999;48.780;9.146;2023-05-24T02:44:10;12.20;99.90
7512;DHT22;9999;48.780;9.146;2023-05-24T02:46:37;12.20;99.90
7512;DHT22;9999;48.780;9.146;2023-05-24T02:49:05;12.30;99.90
7512;DHT22;9999;48.780;9.146;2023-05-24T02:51:32;12.30;99.90
7512;DHT22;9999;48.780;9.146;2023-05-24T02:53:58;12.30;99.90
7512;DHT22;9999;48.780;9.146;2023-05-24T02:56:26;12.10;99.90
7512;DHT22;9999;48.780;9.146;2023-05-24T02:58:53;12.20;99.90
7512;DHT22;9999;48.780;9.146;2023-05-24T03:01:21;12.10;99.90
7512;DHT22;9999;48.780;9.146;2023-05-24T03:03:50;12.10;99.90
7512;DHT22;9999;48.780;9.146;2023-05-24T03:06:18;12.00;99.90
7512;DHT22;9999;48.780;9.146;2023-05-24T03:08:45;11.90;99.90
7512;DHT22;9999;48.780;9.146;2023-05-24T03:11:12;11.90;99.90
7512;DHT22;9999;48.780;9.146;2023-05-24T03:13:40;11.90;99.90
7512;DHT22;9999;48.780;9.146;2023-05-24T03:16:07;11.90;99.90
7512;DHT22;9999;48.780;9.146;2023-05-24T03:18:34;11.80;99.90
7512;DHT22;9999;48.780;9.146;2023-05-24T03:21:00;11.70;99.90
7512;DHT22;9999;48.780;9.146;2023-05-24T03:23:29;11.70;99.90
7512;DHT22;9999;48.780;9.146;2023-05-24T03:25:55;11.60;99.90
7512;DHT22;9999;48.780;9.146;2023-05-24T03:28:23;11.50;99.90
7512;DHT22;9999;48.780;9.146;2023-05-24T03:30:50;11.50;99.90
7512;DHT22;9999;48.780;9.146;2023-05-24T03:33:17;11.60;99.90
7512;DHT22;9999;48.780;9.146;2023-05-24T03:35:44;11.60;99.90
7512;DHT22;9999;48.780;9.146;2023-05-24T03:38:11;11.70;99.90
7512;DHT22;9999;48.780;9.146;2023-05-24T03:40:42;11.80;99.90
7512;DHT22;9999;48.780;9.146;2023-05-24T03:43:16;11.70;99.90
7512;DHT22;9999;48.780;9.146;2023-05-24T03:45:54;11.70;99.90
7512;DHT22;9999;48.780;9.146;2023-05-24T03:48:20;11.70;99.90
7512;DHT22;9999;48.780;9.146;2023-05-24T03:50:49;11.60;99.90
7512;DHT22;9999;48.780;9.146;2023-05-24T03:53:16;11.60;99.90
7512;DHT22;9999;48.780;9.146;2023-05-24T03:55:48;11.50;99.90
7512;DHT22;9999;48.780;9.146;2023-05-24T03:58:14;11.50;99.90
7512;DHT22;9999;48.780;9.146;2023-05-24T04:00:41;11.50;99.90
7512;DHT22;9999;48.780;9.146;2023-05-24T04:03:08;11.60;99.90
7512;DHT22;9999;48.780;9.146;2023-05-24T04:05:35;11.50;99.90
7512;DHT22;9999;48.780;9.146;2023-05-24T04:08:03;11.70;99.90
7512;DHT22;9999;48.780;9.146;2023-05-24T04:10:29;11.60;99.90
7512;DHT22;9999;48.780;9.146;2023-05-24T04:12:57;11.60;99.90
7512;DHT22;9999;48.780;9.146;2023-05-24T04:15:25;11.50;99.90
7512;DHT22;9999;48.780;9.146;2023-05-24T04:17:52;11.50;99.90
7512;DHT22;9999;48.780;9.146;2023-05-24T04:20:20;11.70;99.90
7512;DHT22;9999;48.780;9.146;2023-05-24T04:22:49;11.60;99.90
7512;DHT22;9999;48.780;9.146;2023-05-24T04:25:16;11.60;99.90
7512;DHT22;9999;48.780;9.146;2023-05-24T04:27:43;11.60;99.90
7512;DHT22;9999;48.780;9.146;2023-05-24T04:30:14;11.60;99.90
7512;DHT22;9999;48.780;9.146;2023-05-24T04:32:41;11.60;99.90
7512;DHT22;9999;48.780;9.146;2023-05-24T04:35:09;11.60;99.90
7512;DHT22;9999;48.780;9.146;2023-05-24T04:37:36;11.50;99.90
7512;DHT22;9999;48.780;9.146;2023-05-24T04:40:05;11.50;99.90
7512;DHT22;9999;48.780;9.146;2023-05-24T04:42:32;11.40;99.90
7512;DHT22;9999;48.780;9.146;2023-05-24T04:44:59;11.40;99.90
7512;DHT22;9999;48.780;9.146;2023-05-24T04:47:28;11.50;99.90
7512;DHT22;9999;48.780;9.146;2023-05-24T04:49:54;11.50;99.90
7512;DHT22;9999;48.780;9.146;2023-05-24T04:52:21;11.60;99.90
7512;DHT22;9999;48.780;9.146;2023-05-24T04:54:48;11.50;99.90
7512;DHT22;9999;48.780;9.146;2023-05-24T04:57:15;11.50;99.90
7512;DHT22;9999;48.780;9.146;2023-05-24T04:59:42;11.50;99.90
7512;DHT22;9999;48.780;9.146;2023-05-24T05:02:09;11.50;99.90
7512;DHT22;9999;48.780;9.146;2023-05-24T05:04:37;11.50;99.90
7512;DHT22;9999;48.780;9.146;2023-05-24T05:07:04;11.60;99.90
7512;DHT22;9999;48.780;9.146;2023-05-24T05:09:31;11.60;99.90
7512;DHT22;9999;48.780;9.146;2023-05-24T05:11:57;11.60;99.90
7512;DHT22;9999;48.780;9.146;2023-05-24T05:14:25;11.50;99.90
7512;DHT22;9999;48.780;9.146;2023-05-24T05:16:51;11.50;99.90
7512;DHT22;9999;48.780;9.146;2023-05-24T05:19:18;11.40;99.90
7512;DHT22;9999;48.780;9.146;2023-05-24T05:21:47;11.40;99.90
7512;DHT22;9999;48.780;9.146;2023-05-24T05:24:14;11.50;99.90
7512;DHT22;9999;48.780;9.146;2023-05-24T05:26:41;11.50;99.90
7512;DHT22;9999;48.780;9.146;2023-05-24T05:29:08;11.40;99.90
7512;DHT22;9999;48.780;9.146;2023-05-24T05:31:35;11.40;99.90
7512;DHT22;9999;48.780;9.146;2023-05-24T05:34:01;11.40;99.90
7512;DHT22;9999;48.780;9.146;2023-05-24T05:36:28;11.40;99.90
7512;DHT22;9999;48.780;9.146;2023-05-24T05:38:57;11.50;99.90
7512;DHT22;9999;48.780;9.146;2023-05-24T05:41:23;11.50;99.90
7512;DHT22;9999;48.780;9.146;2023-05-24T05:43:50;11.50;99.90
7512;DHT22;9999;48.780;9.146;2023-05-24T05:46:17;11.50;99.90
7512;DHT22;9999;48.780;9.146;2023-05-24T05:48:45;11.40;99.90
7512;DHT22;9999;48.780;9.146;2023-05-24T05:51:12;11.40;99.90
7512;DHT22;9999;48.780;9.146;2023-05-24T05:53:39;11.30;99.90
7512;DHT22;9999;48.780;9.146;2023-05-24T05:56:07;11.40;99.90
7512;DHT22;9999;48.780;9.146;2023-05-24T05:58:34;11.50;99.90
7512;DHT22;9999;48.780;9.146;2023-05-24T06:01:03;11.50;99.90
7512;DHT22;9999;48.780;9.146;2023-05-24T06:03:29;11.60;99.90
7512;DHT22;9999;48.780;9.146;2023-05-24T06:05:56;11.70;99.90
7512;DHT22;9999;48.780;9.146;2023-05-24T06:08:23;11.70;99.90
7512;DHT22;9999;48.780;9.146;2023-05-24T06:10:50;11.70;99.90
7512;DHT22;9999;48.780;9.146;2023-05-24T06:13:19;11.70;99.90
7512;DHT22;9999;48.780;9.146;2023-05-24T06:15:45;11.70;99.90
7512;DHT22;9999;48.780;9.146;2023-05-24T06:18:12;11.70;99.90
7512;DHT22;9999;48.780;9.146;2023-05-24T06:20:39;11.70;99.90
7512;DHT22;9999;48.780;9.146;2023-05-24T06:23:06;11.70;99.90
7512;DHT22;9999;48.780;9.146;2023-05-24T06:25:33;11.70;99.90
7512;DHT22;9999;48.780;9.146;2023-05-24T06:28:00;11.80;99.90
7512;DHT22;9999;48.780;9.146;2023-05-24T06:30:28;11.80;99.90
7512;DHT22;9999;48.780;9.146;2023-05-24T06:32:54;11.90;99.90
7512;DHT22;9999;48.780;9.146;2023-05-24T06:35:21;11.80;99.90
7512;DHT22;9999;48.780;9.146;2023-05-24T06:37:48;11.90;99.90
7512;DHT22;9999;48.780;9.146;2023-05-24T06:40:15;11.90;99.90
7512;DHT22;9999;48.780;9.146;2023-05-24T06:42:42;12.00;99.90
7512;DHT22;9999;48.780;9.146;2023-05-24T06:45:10;11.90;99.90
7512;DHT22;9999;48.780;9.146;2023-05-24T06:47:38;11.90;99.90
7512;DHT22;9999;48.780;9.146;2023-05-24T06:50:06;11.80;99.90
7512;DHT22;9999;48.780;9.146;2023-05-24T06:52:33;11.80;99.90
7512;DHT22;9999;48.780;9.146;2023-05-24T06:55:00;11.80;99.90
7512;DHT22;9999;48.780;9.146;2023-05-24T06:57:27;11.80;99.90
7512;DHT22;9999;48.780;9.146;2023-05-24T06:59:54;11.90;99.90
7512;DHT22;9999;48.780;9.146;2023-05-24T07:02:21;12.00;99.90
7512;DHT22;9999;48.780;9.146;2023-05-24T07:04:53;12.00;99.90
7512;DHT22;9999;48.780;9.146;2023-05-24T07:07:20;12.00;99.90
7512;DHT22;9999;48.780;9.146;2023-05-24T07:09:46;12.00;99.90
7512;DHT22;9999;48.780;9.146;2023-05-24T07:12:13;12.00;99.90
7512;DHT22;9999;48.780;9.146;2023-05-24T07:14:40;12.00;99.90
7512;DHT22;9999;48.780;9.146;2023-05-24T07:17:07;11.90;99.90
7512;DHT22;9999;48.780;9.146;2023-05-24T07:19:33;11.90;99.90
7512;DHT22;9999;48.780;9.146;2023-05-24T07:22:02;11.90;99.90
7512;DHT22;9999;48.780;9.146;2023-05-24T07:24:29;11.80;99.90
7512;DHT22;9999;48.780;9.146;2023-05-24T07:26:56;11.80;99.90
7512;DHT22;9999;48.780;9.146;2023-05-24T07:29:23;11.90;99.90
7512;DHT22;9999;48.780;9.146;2023-05-24T07:31:50;11.90;99.90
7512;DHT22;9999;48.780;9.146;2023-05-24T07:34:18;12.00;99.90
7512;DHT22;9999;48.780;9.146;2023-05-24T07:36:46;12.00;99.90
7512;DHT22;9999;48.780;9.146;2023-05-24T07:39:15;12.00;99.90
7512;DHT22;9999;48.780;9.146;2023-05-24T07:41:42;12.00;99.90
7512;DHT22;9999;48.780;9.146;2023-05-24T07:44:08;12.00;99.90
7512;DHT22;9999;48.780;9.146;2023-05-24T07:46:36;11.90;99.90
7512;DHT22;9999;48.780;9.146;2023-05-24T07:49:03;11.80;99.90
7512;DHT22;9999;48.780;9.146;2023-05-24T07:51:30;11.90;99.90
7512;DHT22;9999;48.780;9.146;2023-05-24T07:53:58;11.90;99.90
7512;DHT22;9999;48.780;9.146;2023-05-24T07:56:26;12.00;99.90
7512;DHT22;9999;48.780;9.146;2023-05-24T07:58:53;12.00;99.90
7512;DHT22;9999;48.780;9.146;2023-05-24T08:01:23;12.00;99.90
7512;DHT22;9999;48.780;9.146;2023-05-24T08:03:50;12.10;99.90
7512;DHT22;9999;48.780;9.146;2023-05-24T08:06:17;12.10;99.90
7512;DHT22;9999;48.780;9.146;2023-05-24T08:08:44;12.00;99.90
7512;DHT22;9999;48.780;9.146;2023-05-24T08:11:12;12.10;99.90
7512;DHT22;9999;48.780;9.146;2023-05-24T08:13:40;12.20;99.90
7512;DHT22;9999;48.780;9.146;2023-05-24T08:16:06;12.20;99.90
7512;DHT22;9999;48.780;9.146;2023-05-24T08:18:33;12.30;99.90
7512;DHT22;9999;48.780;9.146;2023-05-24T08:21:00;12.40;99.90
7512;DHT22;9999;48.780;9.146;2023-05-24T08:23:27;12.50;99.90
7512;DHT22;9999;48.780;9.146;2023-05-24T08:25:56;12.50;99.90
7512;DHT22;9999;48.780;9.146;2023-05-24T08:28:23;12.60;99.90
7512;DHT22;9999;48.780;9.146;2023-05-24T08:30:51;12.50;99.90
7512;DHT22;9999;48.780;9.146;2023-05-24T08:33:17;12.50;99.90
7512;DHT22;9999;48.780;9.146;2023-05-24T08:35:44;12.50;99.90
7512;DHT22;9999;48.780;9.146;2023-05-24T08:38:11;12.60;99.90
7512;DHT22;9999;48.780;9.146;2023-05-24T08:40:38;12.50;99.90
7512;DHT22;9999;48.780;9.146;2023-05-24T08:43:05;12.40;99.90
7512;DHT22;9999;48.780;9.146;2023-05-24T08:45:36;12.40;99.90
7512;DHT22;9999;48.780;9.146;2023-05-24T08:48:05;12.50;99.90
7512;DHT22;9999;48.780;9.146;2023-05-24T08:50:32;12.60;99.90
7512;DHT22;9999;48.780;9.146;2023-05-24T08:53:00;12.70;99.90
7512;DHT22;9999;48.780;9.146;2023-05-24T08:55:28;12.80;99.90
7512;DHT22;9999;48.780;9.146;2023-05-24T08:57:56;12.90;99.90
7512;DHT22;9999;48.780;9.146;2023-05-24T09:00:24;12.80;99.90
7512;DHT22;9999;48.780;9.146;2023-05-24T09:02:51;12.80;99.90
7512;DHT22;9999;48.780;9.146;2023-05-24T09:05:20;12.80;99.90
7512;DHT22;9999;48.780;9.146;2023-05-24T09:07:48;12.90;99.90
7512;DHT22;9999;48.780;9.146;2023-05-24T09:10:18;12.90;99.90
7512;DHT22;9999;48.780;9.146;2023-05-24T09:12:48;12.90;99.90
7512;DHT22;9999;48.780;9.146;2023-05-24T09:15:17;13.00;99.90
7512;DHT22;9999;48.780;9.146;2023-05-24T09:17:43;13.00;99.90
7512;DHT22;9999;48.780;9.146;2023-05-24T09:20:12;13.00;99.90
7512;DHT22;9999;48.780;9.146;2023-05-24T09:22:41;12.90;99.90
7512;DHT22;9999;48.780;9.146;2023-05-24T09:25:11;12.80;99.90
7512;DHT22;9999;48.780;9.146;2023-05-24T09:27:38;12.80;99.90
7512;DHT22;9999;48.780;9.146;2023-05-24T09:30:08;12.90;99.90
7512;DHT22;9999;48.780;9.146;2023-05-24T09:32:37;12.80;99.90
7512;DHT22;9999;48.780;9.146;2023-05-24T09:35:07;12.70;99.90
7512;DHT22;9999;48.780;9.146;2023-05-24T09:37:35;12.80;99.90
7512;DHT22;9999;48.780;9.146;2023-05-24T09:40:05;12.70;99.90
7512;DHT22;9999;48.780;9.146;2023-05-24T09:42:33;12.60;99.90
7512;DHT22;9999;48.780;9.146;2023-05-24T09:45:02;12.70;99.90
7512;DHT22;9999;48.780;9.146;2023-05-24T09:47:31;12.60;99.90
7512;DHT22;9999;48.780;9.146;2023-05-24T09:49:59;12.60;99.90
7512;DHT22;9999;48.780;9.146;2023-05-24T09:52:26;12.60;99.90
7512;DHT22;9999;48.780;9.146;2023-05-24T09:54:53;12.70;99.90
7512;DHT22;9999;48.780;9.146;2023-05-24T09:57:21;12.70;99.90
7512;DHT22;9999;48.780;9.146;2023-05-24T09:59:48;12.80;99.90
7512;DHT22;9999;48.780;9.146;2023-05-24T10:02:16;12.60;99.90
7512;DHT22;9999;48.780;9.146;2023-05-24T10:04:45;12.70;99.90
7512;DHT22;9999;48.780;9.146;2023-05-24T10:07:12;12.60;99.90
7512;DHT22;9999;48.780;9.146;2023-05-24T10:09:39;12.70;99.90
7512;DHT22;9999;48.780;9.146;2023-05-24T10:12:07;12.50;99.90
7512;DHT22;9999;48.780;9.146;2023-05-24T10:14:36;12.50;99.90
7512;DHT22;9999;48.780;9.146;2023-05-24T10:17:04;12.50;99.90
7512;DHT22;9999;48.780;9.146;2023-05-24T10:19:31;12.40;99.90
7512;DHT22;9999;48.780;9.146;2023-05-24T10:21:59;12.40;99.90
7512;DHT22;9999;48.780;9.146;2023-05-24T10:24:31;12.30;99.90
7512;DHT22;9999;48.780;9.146;2023-05-24T10:27:00;12.30;99.90
7512;DHT22;9999;48.780;9.146;2023-05-24T10:29:35;12.30;99.90
7512;DHT22;9999;48.780;9.146;2023-05-24T10:32:09;12.30;99.90
7512;DHT22;9999;48.780;9.146;2023-05-24T10:34:37;12.20;99.90
7512;DHT22;9999;48.780;9.146;2023-05-24T10:37:04;12.20;99.90
7512;DHT22;9999;48.780;9.146;2023-05-24T10:39:32;12.20;99.90
7512;DHT22;9999;48.780;9.146;2023-05-24T10:42:01;12.20;99.90
7512;DHT22;9999;48.780;9.146;2023-05-24T10:44:29;12.00;99.90
7512;DHT22;9999;48.780;9.146;2023-05-24T10:47:12;12.10;99.90
7512;DHT22;9999;48.780;9.146;2023-05-24T10:49:47;12.20;99.90
7512;DHT22;9999;48.780;9.146;2023-05-24T10:52:16;12.30;99.90
7512;DHT22;9999;48.780;9.146;2023-05-24T10:55:03;12.30;99.90
7512;DHT22;9999;48.780;9.146;2023-05-24T10:57:32;12.30;99.90
7512;DHT22;9999;48.780;9.146;2023-05-24T11:00:26;12.40;99.90
7512;DHT22;9999;48.780;9.146;2023-05-24T11:02:59;12.60;99.90
7512;DHT22;9999;48.780;9.146;2023-05-24T11:05:33;12.70;99.90
7512;DHT22;9999;48.780;9.146;2023-05-24T11:08:00;12.80;99.90
7512;DHT22;9999;48.780;9.146;2023-05-24T11:10:31;12.90;99.90
7512;DHT22;9999;48.780;9.146;2023-05-24T11:12:59;12.90;99.90
7512;DHT22;9999;48.780;9.146;2023-05-24T11:15:28;13.00;99.90
7512;DHT22;9999;48.780;9.146;2023-05-24T11:18:14;13.10;99.90
7512;DHT22;9999;48.780;9.146;2023-05-24T11:20:42;13.10;99.90
7512;DHT22;9999;48.780;9.146;2023-05-24T11:23:09;13.00;99.90
7512;DHT22;9999;48.780;9.146;2023-05-24T11:25:37;13.00;99.90
7512;DHT22;9999;48.780;9.146;2023-05-24T11:28:06;13.20;99.90
7512;DHT22;9999;48.780;9.146;2023-05-24T11:30:37;13.40;99.90
7512;DHT22;9999;48.780;9.146;2023-05-24T11:33:04;13.50;99.90
7512;DHT22;9999;48.780;9.146;2023-05-24T11:35:32;13.60;99.90
7512;DHT22;9999;48.780;9.146;2023-05-24T11:37:58;13.90;99.90
7512;DHT22;9999;48.780;9.146;2023-05-24T11:40:25;14.00;99.90
7512;DHT22;9999;48.780;9.146;2023-05-24T11:42:52;14.30;99.90
7512;DHT22;9999;48.780;9.146;2023-05-24T11:45:19;14.50;99.90
7512;DHT22;9999;48.780;9.146;2023-05-24T11:47:47;14.60;99.90
7512;DHT22;9999;48.780;9.146;2023-05-24T11:50:15;14.90;99.90
7512;DHT22;9999;48.780;9.146;2023-05-24T11:52:43;15.40;99.90
7512;DHT22;9999;48.780;9.146;2023-05-24T11:55:11;15.70;99.90
7512;DHT22;9999;48.780;9.146;2023-05-24T11:57:44;16.10;99.90
7512;DHT22;9999;48.780;9.146;2023-05-24T12:00:23;15.90;99.90
7512;DHT22;9999;48.780;9.146;2023-05-24T12:02:50;16.20;99.90
7512;DHT22;9999;48.780;9.146;2023-05-24T12:05:18;16.40;99.90
7512;DHT22;9999;48.780;9.146;2023-05-24T12:07:46;16.60;99.90
7512;DHT22;9999;48.780;9.146;2023-05-24T12:10:13;16.70;99.90
7512;DHT22;9999;48.780;9.146;2023-05-24T12:12:42;16.90;99.90
7512;DHT22;9999;48.780;9.146;2023-05-24T12:15:10;16.90;99.90
7512;DHT22;9999;48.780;9.146;2023-05-24T12:17:37;17.00;99.90
7512;DHT22;9999;48.780;9.146;2023-05-24T12:20:05;16.70;99.90
7512;DHT22;9999;48.780;9.146;2023-05-24T12:22:33;16.80;99.90
7512;DHT22;9999;48.780;9.146;2023-05-24T12:25:02;16.50;99.90
7512;DHT22;9999;48.780;9.146;2023-05-24T12:27:29;16.60;99.90
7512;DHT22;9999;48.780;9.146;2023-05-24T12:30:05;16.70;99.90
7512;DHT22;9999;48.780;9.146;2023-05-24T12:32:34;16.90;99.90
7512;DHT22;9999;48.780;9.146;2023-05-24T12:35:03;17.00;99.90
7512;DHT22;9999;48.780;9.146;2023-05-24T12:37:30;16.90;99.90
7512;DHT22;9999;48.780;9.146;2023-05-24T12:40:00;17.20;99.90
7512;DHT22;9999;48.780;9.146;2023-05-24T12:42:29;17.20;99.90
7512;DHT22;9999;48.780;9.146;2023-05-24T12:44:56;17.40;99.90
7512;DHT22;9999;48.780;9.146;2023-05-24T12:47:23;17.50;99.90
7512;DHT22;9999;48.780;9.146;2023-05-24T12:49:49;17.70;99.90
7512;DHT22;9999;48.780;9.146;2023-05-24T12:52:16;17.40;99.90
7512;DHT22;9999;48.780;9.146;2023-05-24T12:54:43;17.50;99.90
7512;DHT22;9999;48.780;9.146;2023-05-24T12:57:12;17.10;99.90
7512;DHT22;9999;48.780;9.146;2023-05-24T12:59:38;17.30;99.90
7512;DHT22;9999;48.780;9.146;2023-05-24T13:02:06;17.50;99.30
7512;DHT22;9999;48.780;9.146;2023-05-24T13:04:33;17.50;99.90
7512;DHT22;9999;48.780;9.146;2023-05-24T13:07:00;17.90;99.90
7512;DHT22;9999;48.780;9.146;2023-05-24T13:09:28;17.70;99.90
7512;DHT22;9999;48.780;9.146;2023-05-24T13:11:55;17.40;99.90
7512;DHT22;9999;48.780;9.146;2023-05-24T13:14:23;16.90;98.30
7512;DHT22;9999;48.780;9.146;2023-05-24T13:16:49;16.70;99.90
7512;DHT22;9999;48.780;9.146;2023-05-24T13:19:17;16.80;99.90
7512;DHT22;9999;48.780;9.146;2023-05-24T13:21:43;16.90;99.90
7512;DHT22;9999;48.780;9.146;2023-05-24T13:24:11;17.00;99.90
7512;DHT22;9999;48.780;9.146;2023-05-24T13:26:39;17.00;99.90
7512;DHT22;9999;48.780;9.146;2023-05-24T13:29:06;17.10;99.90
7512;DHT22;9999;48.780;9.146;2023-05-24T13:31:34;17.20;99.90
7512;DHT22;9999;48.780;9.146;2023-05-24T13:34:01;17.10;99.90
7512;DHT22;9999;48.780;9.146;2023-05-24T13:36:28;17.30;98.70
7512;DHT22;9999;48.780;9.146;2023-05-24T13:38:55;17.40;97.70
7512;DHT22;9999;48.780;9.146;2023-05-24T13:41:21;17.50;99.80
7512;DHT22;9999;48.780;9.146;2023-05-24T13:43:50;17.50;99.90
7512;DHT22;9999;48.780;9.146;2023-05-24T13:46:17;17.40;98.20
7512;DHT22;9999;48.780;9.146;2023-05-24T13:48:45;17.50;99.90
7512;DHT22;9999;48.780;9.146;2023-05-24T13:51:12;17.60;99.20
7512;DHT22;9999;48.780;9.146;2023-05-24T13:53:38;17.40;97.90
7512;DHT22;9999;48.780;9.146;2023-05-24T13:56:06;17.10;97.40
7512;DHT22;9999;48.780;9.146;2023-05-24T13:58:32;17.10;98.50
7512;DHT22;9999;48.780;9.146;2023-05-24T14:00:59;17.40;98.50
7512;DHT22;9999;48.780;9.146;2023-05-24T14:03:26;17.60;97.60
7512;DHT22;9999;48.780;9.146;2023-05-24T14:05:54;17.80;96.90
7512;DHT22;9999;48.780;9.146;2023-05-24T14:08:21;17.90;99.90
7512;DHT22;9999;48.780;9.146;2023-05-24T14:10:47;17.80;97.80
7512;DHT22;9999;48.780;9.146;2023-05-24T14:13:16;17.90;99.00
7512;DHT22;9999;48.780;9.146;2023-05-24T14:15:43;17.80;97.30
7512;DHT22;9999;48.780;9.146;2023-05-24T14:18:11;17.80;96.50
7512;DHT22;9999;48.780;9.146;2023-05-24T14:20:38;17.70;97.80
7512;DHT22;9999;48.780;9.146;2023-05-24T14:23:07;17.50;97.20
7512;DHT22;9999;48.780;9.146;2023-05-24T14:25:34;17.30;98.10
7512;DHT22;9999;48.780;9.146;2023-05-24T14:28:01;17.30;96.60
7512;DHT22;9999;48.780;9.146;2023-05-24T14:30:30;17.20;99.60
7512;DHT22;9999;48.780;9.146;2023-05-24T14:32:57;17.30;94.60
7512;DHT22;9999;48.780;9.146;2023-05-24T14:35:25;16.90;97.20
7512;DHT22;9999;48.780;9.146;2023-05-24T14:37:52;16.60;97.40
7512;DHT22;9999;48.780;9.146;2023-05-24T14:40:20;16.50;98.50
7512;DHT22;9999;48.780;9.146;2023-05-24T14:42:47;16.50;98.10
7512;DHT22;9999;48.780;9.146;2023-05-24T14:45:13;16.70;98.00
7512;DHT22;9999;48.780;9.146;2023-05-24T14:47:40;17.00;94.90
7512;DHT22;9999;48.780;9.146;2023-05-24T14:50:08;17.10;96.00
7512;DHT22;9999;48.780;9.146;2023-05-24T14:52:34;17.50;96.80
7512;DHT22;9999;48.780;9.146;2023-05-24T14:55:02;17.50;95.70
7512;DHT22;9999;48.780;9.146;2023-05-24T14:57:30;17.40;94.60
7512;DHT22;9999;48.780;9.146;2023-05-24T14:59:57;17.20;94.20
7512;DHT22;9999;48.780;9.146;2023-05-24T15:02:24;17.20;94.80
7512;DHT22;9999;48.780;9.146;2023-05-24T15:04:51;16.90;95.60
7512;DHT22;9999;48.780;9.146;2023-05-24T15:07:18;16.90;94.10
7512;DHT22;9999;48.780;9.146;2023-05-24T15:09:45;17.00;93.40
7512;DHT22;9999;48.780;9.146;2023-05-24T15:12:11;17.10;94.10
7512;DHT22;9999;48.780;9.146;2023-05-24T15:14:39;17.30;91.40
7512;DHT22;9999;48.780;9.146;2023-05-24T15:17:06;17.40;93.00
7512;DHT22;9999;48.780;9.146;2023-05-24T15:19:33;17.70;92.90
7512;DHT22;9999;48.780;9.146;2023-05-24T15:21:59;17.90;94.10
7512;DHT22;9999;48.780;9.146;2023-05-24T15:24:26;18.00;93.80
7512;DHT22;9999;48.780;9.146;2023-05-24T15:26:53;18.00;92.00
7512;DHT22;9999;48.780;9.146;2023-05-24T15:29:19;17.80;91.50
7512;DHT22;9999;48.780;9.146;2023-05-24T15:31:48;17.70;91.40
7512;DHT22;9999;48.780;9.146;2023-05-24T15:34:15;17.60;94.40
7512;DHT22;9999;48.780;9.146;2023-05-24T15:36:43;17.30;92.00
7512;DHT22;9999;48.780;9.146;2023-05-24T15:39:10;17.10;93.90
7512;DHT22;9999;48.780;9.146;2023-05-24T15:41:37;17.00;96.40
7512;DHT22;9999;48.780;9.146;2023-05-24T15:44:04;16.80;97.20
7512;DHT22;9999;48.780;9.146;2023-05-24T15:46:33;16.70;95.40
7512;DHT22;9999;48.780;9.146;2023-05-24T15:49:02;16.80;96.00
7512;DHT22;9999;48.780;9.146;2023-05-24T15:51:31;16.90;96.90
7512;DHT22;9999;48.780;9.146;2023-05-24T15:53:58;17.00;95.20
7512;DHT22;9999;48.780;9.146;2023-05-24T15:56:24;17.10;96.50
7512;DHT22;9999;48.780;9.146;2023-05-24T15:58:52;17.30;95.90
7512;DHT22;9999;48.780;9.146;2023-05-24T16:01:18;17.40;94.60
7512;DHT22;9999;48.780;9.146;2023-05-24T16:03:45;17.50;95.70
7512;DHT22;9999;48.780;9.146;2023-05-24T16:06:13;17.40;95.00
7512;DHT22;9999;48.780;9.146;2023-05-24T16:08:40;17.20;95.00